Flight Track Log - Related Links

Times and Time Zones

All times are in EDT time to prevent confusion due to time zone crossing. See the N507BE flight status page for this flight to view local times or setup timezone preferences in your user account.

Time Position Orientation Groundspeed Altitude Reporting Facility
EDT Latitude Longitude Course Direction KTS MPH feet Rate Location/Type
Sun 05:16:04 PM 33.6833 -112.1000 284° West 144 166 1,900  Level Phoenix TRACON
Sun 05:16:24 PM 33.6847 -112.1067 284° West 117 135 2,100 1,317 Climbing Albuquerque Center
Sun 05:17:26 PM 33.7219 -112.1058 North 174 200 3,700 1,452 Climbing Albuquerque Center
Sun 05:18:28 PM 33.7347 -112.0525 74° East 175 201 5,100 1,403 Climbing Albuquerque Center
Sun 05:19:30 PM 33.7586 -112.0022 60° Northeast 176 203 6,600 1,500 Climbing Albuquerque Center
Sun 05:20:32 PM 33.7828 -111.9528 60° Northeast 174 200 8,200 1,790 Climbing Albuquerque Center
Sun 05:21:34 PM 33.8033 -111.9081 61° Northeast 148 170 10,300 1,645 Climbing Albuquerque Center
Sun 05:22:36 PM 33.8239 -111.8617 62° Northeast 164 189 11,600 1,306 Climbing Albuquerque Center
Sun 05:23:38 PM 33.8478 -111.7928 67° East 192 221 13,000 677 Climbing Albuquerque Center
Sun 05:24:40 PM 33.8964 -111.7517 35° Northeast 228 262 13,000 339 Level Albuquerque Center
Sun 05:25:42 PM 33.9594 -111.7456 North 232 267 13,700 1,161 Climbing Albuquerque Center
Sun 05:26:44 PM 34.0194 -111.7197 20° North 194 223 15,400 1,355 Climbing Albuquerque Center
Sun 05:27:46 PM 34.0700 -111.6989 19° North 194 223 16,500 1,065 Climbing Albuquerque Center
Sun 05:28:48 PM 34.1214 -111.6781 19° North 196 226 17,600 1,113 Climbing Albuquerque Center
Sun 05:29:50 PM 34.1750 -111.6578 17° North 200 230 18,800 1,161 Climbing Albuquerque Center
Sun 05:30:52 PM 34.2267 -111.6417 14° North 193 222 20,000 1,065 Climbing Albuquerque Center
Sun 05:31:54 PM 34.2842 -111.6244 14° North 207 238 21,000 1,210 Climbing Albuquerque Center
Sun 05:32:56 PM 34.3467 -111.6006 18° North 201 231 22,500 1,248 Climbing Albuquerque Center
Sun 05:33:59 PM 34.3972 -111.5847 14° North 191 220 23,600 1,056 Climbing Albuquerque Center
Sun 05:35:01 PM 34.4492 -111.5650 17° North 193 222 24,700 1,016 Climbing Albuquerque Center
Sun 05:36:03 PM 34.4986 -111.5453 18° North 190 219 25,700 919 Climbing Albuquerque Center
Sun 05:37:05 PM 34.5503 -111.5244 18° North 192 221 26,600 677 Climbing Albuquerque Center
Sun 05:38:07 PM 34.6133 -111.4889 25° Northeast 204 235 27,100 242 Climbing Albuquerque Center
Sun 05:39:09 PM 34.6783 -111.4572 22° Northeast 240 276 27,100 -48 Level Albuquerque Center
Sun 05:40:11 PM 34.7394 -111.4097 33° Northeast 266 306 27,000 -48 Descending Albuquerque Center
Sun 05:41:13 PM 34.7858 -111.3253 56° Northeast 296 341 27,000 -194 Level Albuquerque Center
Sun 05:42:15 PM 34.8311 -111.2367 58° Northeast 302 348 26,600  Descending Albuquerque Center
Sun 05:43:17 PM 34.8828 -111.1594 51° Northeast 301 346 27,000 194 Climbing Albuquerque Center
Sun 05:44:19 PM 34.9331 -111.0844 51° Northeast 294 338 27,000  Level Albuquerque Center
Sun 05:45:21 PM 35.0011 -111.0011 45° Northeast 288 331 27,000  Level Albuquerque Center
Sun 05:46:23 PM 35.0636 -110.9342 41° Northeast 284 327 27,000 -48 Level Albuquerque Center
Sun 05:47:25 PM 35.1089 -110.8561 55° Northeast 292 336 26,900  Descending Albuquerque Center
Sun 05:48:27 PM 35.1683 -110.7758 48° Northeast 288 331 27,000  Climbing Albuquerque Center
Sun 05:49:29 PM 35.2206 -110.7097 46° Northeast 284 327 26,900  Descending Albuquerque Center
Sun 05:50:31 PM 35.2803 -110.6311 47° Northeast 284 327 27,000 48 Climbing Albuquerque Center
Sun 05:51:33 PM 35.3336 -110.5644 46° Northeast 285 328 27,000 -48 Level Albuquerque Center
Sun 05:52:35 PM 35.3811 -110.4925 51° Northeast 285 328 26,900  Descending Albuquerque Center
Sun 05:53:37 PM 35.4408 -110.4150 47° Northeast 282 325 27,000 48 Climbing Albuquerque Center
Sun 05:54:39 PM 35.4900 -110.3458 49° Northeast 281 323 27,000  Level Albuquerque Center
Sun 05:55:41 PM 35.5458 -110.2625 51° Northeast 282 325 27,000  Level Albuquerque Center
Sun 05:56:43 PM 35.5956 -110.1922 49° Northeast 284 327 27,000  Level Albuquerque Center
Sun 05:57:45 PM 35.6544 -110.1108 48° Northeast 284 327 27,000  Level Albuquerque Center
Sun 05:58:47 PM 35.7042 -110.0397 49° Northeast 286 329 27,000 -48 Level Albuquerque Center
Sun 05:59:49 PM 35.7608 -109.9594 49° Northeast 282 325 26,900  Descending Albuquerque Center
Sun 06:00:51 PM 35.8094 -109.8889 50° Northeast 280 322 27,000 48 Climbing Albuquerque Center
Sun 06:01:53 PM 35.8678 -109.8069 49° Northeast 282 325 27,000 -51 Level Albuquerque Center
Sun 06:02:48 PM 35.9106 -109.7492 48° Northeast 283 326 26,900  Descending Denver Center
Sun 06:03:50 PM 35.9689 -109.6647 50° Northeast 287 330 27,000 48 Climbing Denver Center
Sun 06:04:52 PM 36.0181 -109.5933 50° Northeast 286 329 27,000  Level Denver Center
Sun 06:05:54 PM 36.0769 -109.5114 48° Northeast 285 328 27,000  Level Denver Center
Sun 06:06:56 PM 36.1261 -109.4386 50° Northeast 286 329 27,000 -48 Level Denver Center
Sun 06:07:58 PM 36.1836 -109.3508 51° Northeast 291 335 26,900  Descending Denver Center
Sun 06:09:00 PM 36.2339 -109.2778 50° Northeast 290 334 27,000 48 Climbing Denver Center
Sun 06:10:02 PM 36.2842 -109.2044 50° Northeast 290 334 27,000  Level Denver Center
Sun 06:11:04 PM 36.3431 -109.1181 50° Northeast 291 335 27,000  Level Denver Center
Sun 06:12:06 PM 36.3925 -109.0442 50° Northeast 290 334 27,000  Level Denver Center
Sun 06:13:08 PM 36.4508 -108.9575 50° Northeast 290 334 27,000  Level Denver Center
Sun 06:14:10 PM 36.5006 -108.8844 50° Northeast 289 333 27,000  Level Denver Center
Sun 06:15:12 PM 36.5586 -108.7989 50° Northeast 288 331 27,000  Level Denver Center
Sun 06:16:14 PM 36.6069 -108.7261 50° Northeast 286 329 27,000  Level Denver Center
Sun 06:17:16 PM 36.6556 -108.6553 49° Northeast 283 326 27,000  Level Denver Center
Sun 06:18:18 PM 36.7122 -108.5703 50° Northeast 283 326 27,000  Level Denver Center
Sun 06:19:20 PM 36.7619 -108.4986 49° Northeast 285 328 27,000  Level Denver Center
Sun 06:20:22 PM 36.8194 -108.4117 50° Northeast 289 333 27,000  Level Denver Center
Sun 06:21:24 PM 36.8697 -108.3367 50° Northeast 292 336 27,000  Level Denver Center
Sun 06:22:26 PM 36.9283 -108.2478 50° Northeast 297 342 27,000  Level Denver Center
Sun 06:23:28 PM 36.9794 -108.1728 50° Northeast 296 341 27,000  Level Denver Center
Sun 06:24:30 PM 37.0378 -108.0800 52° Northeast 302 348 27,000  Level Denver Center
Sun 06:25:32 PM 37.0897 -108.0058 49° Northeast 298 343 27,000  Level Denver Center
Sun 06:26:34 PM 37.1464 -107.9175 51° Northeast 292 336 27,000  Level Denver Center
Sun 06:27:36 PM 37.1978 -107.8411 50° Northeast 297 342 27,000  Level Denver Center
Sun 06:28:38 PM 37.2478 -107.7642 51° Northeast 296 341 27,000  Level Denver Center
Sun 06:29:40 PM 37.3064 -107.6753 50° Northeast 297 342 27,000  Level Denver Center
Sun 06:30:42 PM 37.3564 -107.5972 51° Northeast 297 342 27,000  Level Denver Center
Sun 06:31:44 PM 37.4147 -107.5072 51° Northeast 298 343 27,000  Level Denver Center
Sun 06:32:46 PM 37.4642 -107.4306 51° Northeast 296 341 27,000  Level Denver Center
Sun 06:33:48 PM 37.5206 -107.3439 51° Northeast 288 331 27,000  Level Denver Center
Sun 06:34:50 PM 37.5700 -107.2719 49° Northeast 285 328 27,000  Level Denver Center
Sun 06:35:51 PM 37.6261 -107.1831 51° Northeast 289 333 27,000  Level Denver Center
Sun 06:36:53 PM 37.6733 -107.1061 52° Northeast 290 334 27,000  Level Denver Center
Sun 06:37:55 PM 37.7333 -107.0219 48° Northeast 289 333 27,000  Level Denver Center
Sun 06:38:57 PM 37.7825 -106.9447 51° Northeast 295 339 27,000  Level Denver Center
Sun 06:39:59 PM 37.8336 -106.8556 54° Northeast 303 349 27,000  Level Denver Center
Sun 06:41:01 PM 37.8836 -106.7778 51° Northeast 297 342 27,000  Level Denver Center
Sun 06:42:03 PM 37.9433 -106.6894 49° Northeast 296 341 27,000  Level Denver Center
Sun 06:43:05 PM 37.9900 -106.6100 53° Northeast 294 338 27,000  Level Denver Center
Sun 06:44:06 PM 38.0472 -106.5186 51° Northeast 295 339 27,000  Level Denver Center
Sun 06:45:08 PM 38.0978 -106.4444 49° Northeast 302 348 27,000  Level Denver Center
Sun 06:46:10 PM 38.1517 -106.3611 51° Northeast 307 353 27,000  Level Denver Center
Sun 06:47:12 PM 38.2031 -106.2747 53° Northeast 306 352 27,000  Level Denver Center
Sun 06:48:14 PM 38.2667 -106.1722 52° Northeast 300 345 27,000  Level Denver Center
Sun 06:49:16 PM 38.3175 -106.0869 53° Northeast 299 344 27,000  Level Denver Center
Sun 06:50:18 PM 38.3686 -106.0119 49° Northeast 294 338 27,000  Level Denver Center
Sun 06:51:19 PM 38.4250 -105.9156 53° Northeast 303 349 27,000  Level Denver Center
Sun 06:52:21 PM 38.4767 -105.8331 51° Northeast 309 356 27,000  Level Denver Center
Sun 06:53:23 PM 38.5308 -105.7461 51° Northeast 313 360 27,000  Level Denver Center
Sun 06:54:25 PM 38.5844 -105.6553 53° Northeast 317 365 27,000  Level Denver Center
Sun 06:55:27 PM 38.6394 -105.5683 51° Northeast 314 361 27,000  Level Denver Center
Sun 06:56:28 PM 38.7017 -105.4650 52° Northeast 312 359 27,000  Level Denver Center
Sun 06:57:30 PM 38.7558 -105.3758 52° Northeast 314 361 27,000  Level Denver Center
Sun 06:58:32 PM 38.8097 -105.2875 52° Northeast 312 359 27,000  Level Denver Center
Sun 06:59:34 PM 38.8631 -105.1975 53° Northeast 314 361 27,000  Level Denver Center
Sun 07:00:36 PM 38.9178 -105.1092 51° Northeast 313 360 27,000  Level Denver Center
Sun 07:01:38 PM 38.9706 -105.0183 53° Northeast 315 362 27,000  Level Denver Center
Sun 07:02:39 PM 39.0261 -104.9269 52° Northeast 321 369 27,000  Level Denver Center
Sun 07:03:41 PM 39.0800 -104.8361 53° Northeast 318 366 27,000  Level Denver Center
Sun 07:04:43 PM 39.1442 -104.7294 52° Northeast 323 372 27,000  Level Denver Center
Sun 07:05:45 PM 39.1983 -104.6417 51° Northeast 312 359 27,000  Level Denver Center
Sun 07:06:47 PM 39.2511 -104.5519 53° Northeast 313 360 27,000  Level Denver Center
Sun 07:07:49 PM 39.3039 -104.4653 52° Northeast 306 352 27,000  Level Denver Center
Sun 07:08:51 PM 39.3564 -104.3767 53° Northeast 309 356 27,000  Level Denver Center
Sun 07:09:53 PM 39.4083 -104.2850 54° Northeast 315 362 27,000  Level Denver Center
Sun 07:10:55 PM 39.4708 -104.1808 52° Northeast 315 362 27,000  Level Denver Center
Sun 07:11:57 PM 39.5239 -104.0900 53° Northeast 315 362 27,000  Level Denver Center
Sun 07:12:58 PM 39.5778 -103.9997 52° Northeast 314 361 27,000  Level Denver Center
Sun 07:14:00 PM 39.6300 -103.9083 53° Northeast 314 361 27,000  Level Denver Center
Sun 07:15:02 PM 39.6828 -103.8150 54° Northeast 318 366 27,000  Level Denver Center
Sun 07:16:04 PM 39.7375 -103.7261 51° Northeast 316 364 27,000  Level Denver Center
Sun 07:17:06 PM 39.7886 -103.6314 55° Northeast 315 362 27,000  Level Denver Center
Sun 07:18:08 PM 39.8517 -103.5231 53° Northeast 319 367 27,000  Level Denver Center
Sun 07:19:10 PM 39.9053 -103.4281 54° Northeast 322 371 27,000  Level Denver Center
Sun 07:20:12 PM 39.9567 -103.3328 55° Northeast 321 369 27,000  Level Denver Center
Sun 07:21:14 PM 40.0128 -103.2442 50° Northeast 315 362 27,000  Level Denver Center
Sun 07:22:16 PM 40.0644 -103.1506 54° Northeast 316 364 27,000  Level Denver Center
Sun 07:23:18 PM 40.1161 -103.0567 54° Northeast 316 364 27,000  Level Denver Center
Sun 07:24:20 PM 40.1689 -102.9636 53° Northeast 316 364 27,000  Level Denver Center
Sun 07:25:22 PM 40.2306 -102.8553 53° Northeast 313 360 27,000  Level Denver Center
Sun 07:26:24 PM 40.2833 -102.7617 54° Northeast 316 364 27,000  Level Denver Center
Sun 07:27:38 PM 40.3478 -102.6469 54° Northeast 313 360 27,000  Level Denver Center
Sun 07:28:40 PM 40.3989 -102.5581 53° Northeast 317 365 27,000  Level Denver Center
Sun 07:29:42 PM 40.4553 -102.4536 55° Northeast 314 361 27,000  Level Denver Center
Sun 07:30:44 PM 40.5061 -102.3653 53° Northeast 316 364 27,000  Level Denver Center
Sun 07:31:46 PM 40.5611 -102.2594 56° Northeast 315 362 27,000  Level Denver Center
Sun 07:32:48 PM 40.6114 -102.1728 53° Northeast 310 357 27,000  Level Denver Center
Sun 07:33:50 PM 40.6606 -102.0822 54° Northeast 316 364 27,000  Level Denver Center
Sun 07:34:52 PM 40.7167 -101.9753 55° Northeast 316 364 27,000  Level Denver Center
Sun 07:35:54 PM 40.7675 -101.8881 52° Northeast 314 361 27,000 48 Level Denver Center
Sun 07:36:56 PM 40.8233 -101.7808 55° Northeast 318 366 27,100  Climbing Denver Center
Sun 07:37:58 PM 40.8736 -101.6919 53° Northeast 314 361 27,000 -48 Descending Denver Center
Sun 07:39:00 PM 40.9317 -101.5856 54° Northeast 319 367 27,000  Level Denver Center
Sun 07:40:02 PM 40.9803 -101.4933 55° Northeast 319 367 27,000  Level Denver Center
Sun 07:41:04 PM 41.0375 -101.3900 54° Northeast 313 360 27,000  Level Denver Center
Sun 07:42:06 PM 41.0847 -101.2986 56° Northeast 313 360 27,000  Level Denver Center
Sun 07:43:08 PM 41.1333 -101.2081 55° Northeast 314 361 27,000  Level Denver Center
Sun 07:44:10 PM 41.1883 -101.1006 56° Northeast 314 361 27,000 48 Level Denver Center
Sun 07:45:12 PM 41.2383 -101.0094 54° Northeast 316 364 27,100  Climbing Denver Center
Sun 07:46:14 PM 41.2956 -100.9006 55° Northeast 321 369 27,000 -48 Descending Denver Center
Sun 07:47:16 PM 41.3436 -100.8061 56° Northeast 321 369 27,000  Level Denver Center
Sun 07:48:18 PM 41.4006 -100.6981 55° Northeast 319 367 27,000  Level Denver Center
Sun 07:49:20 PM 41.4508 -100.6047 54° Northeast 321 369 27,000  Level Denver Center
Sun 07:50:22 PM 41.5003 -100.5131 54° Northeast 319 367 27,000 48 Level Denver Center
Sun 07:51:24 PM 41.5544 -100.4003 57° Northeast 323 372 27,100  Climbing Denver Center
Sun 07:52:26 PM 41.6053 -100.3092 53° Northeast 319 367 27,000 -48 Descending Denver Center
Sun 07:53:28 PM 41.6608 -100.1975 56° Northeast 321 369 27,000  Level Denver Center
Sun 07:54:30 PM 41.7075 -100.1008 57° Northeast 322 371 27,000  Level Denver Center
Sun 07:55:32 PM 41.7667 -99.9925 54° Northeast 322 371 27,000 48 Level Denver Center
Sun 07:56:34 PM 41.8150 -99.8978 56° Northeast 322 371 27,100 48 Climbing Denver Center
Sun 07:57:36 PM 41.8711 -99.7861 56° Northeast 323 372 27,100  Level Denver Center
Sun 07:58:38 PM 41.9242 -99.6847 55° Northeast 319 367 27,100  Level Denver Center
Sun 07:59:40 PM 41.9731 -99.5833 57° Northeast 321 369 27,100 -48 Level Denver Center
Sun 08:00:42 PM 42.0244 -99.4894 54° Northeast 315 362 27,000 -48 Descending Denver Center
Sun 08:01:44 PM 42.0725 -99.3897 57° Northeast 315 362 27,000  Level Denver Center
Sun 08:02:45 PM 42.1211 -99.2917 56° Northeast 315 362 27,000  Level Denver Center
Sun 08:03:47 PM 42.1728 -99.1956 54° Northeast 316 364 27,000  Level Denver Center
Sun 08:04:49 PM 42.2197 -99.0928 58° Northeast 317 365 27,000 48 Level Minneapolis Center
Sun 08:05:51 PM 42.2703 -98.9947 55° Northeast 317 365 27,100  Climbing Minneapolis Center
Sun 08:06:52 PM 42.3292 -98.8744 56° Northeast 319 367 27,000 -49 Descending Minneapolis Center
Sun 08:07:54 PM 42.3781 -98.7750 56° Northeast 318 366 27,000 49 Level Minneapolis Center
Sun 08:08:55 PM 42.4275 -98.6750 56° Northeast 318 366 27,100  Climbing Minneapolis Center
Sun 08:09:56 PM 42.4744 -98.5731 58° Northeast 318 366 27,000 -49 Descending Minneapolis Center
Sun 08:10:58 PM 42.5256 -98.4742 55° Northeast 320 368 27,000  Level Minneapolis Center
Sun 08:11:59 PM 42.5744 -98.3711 57° Northeast 322 371 27,000  Level Minneapolis Center
Sun 08:13:00 PM 42.6239 -98.2700 56° Northeast 321 369 27,000 49 Level Minneapolis Center
Sun 08:14:02 PM 42.6806 -98.1553 56° Northeast 321 369 27,100  Climbing Minneapolis Center
Sun 08:15:03 PM 42.7300 -98.0539 56° Northeast 323 372 27,000  Descending Minneapolis Center
Sun 08:16:05 PM 42.7778 -97.9519 57° Northeast 321 369 27,100 49 Climbing Minneapolis Center
Sun 08:17:06 PM 42.8258 -97.8500 57° Northeast 321 369 27,100  Level Minneapolis Center
Sun 08:18:07 PM 42.8778 -97.7514 54° Northeast 321 369 27,100  Level Minneapolis Center
Sun 08:19:09 PM 42.9233 -97.6453 60° Northeast 322 371 27,100 -49 Level Minneapolis Center
Sun 08:20:10 PM 42.9714 -97.5439 57° Northeast 322 371 27,000  Descending Minneapolis Center
Sun 08:21:11 PM 43.0211 -97.4417 56° Northeast 323 372 27,100  Climbing Minneapolis Center
Sun 08:22:13 PM 43.0683 -97.3372 58° Northeast 324 373 27,000  Descending Minneapolis Center
Sun 08:23:14 PM 43.1275 -97.2153 56° Northeast 324 373 27,100 49 Climbing Minneapolis Center
Sun 08:24:15 PM 43.1739 -97.1094 59° Northeast 324 373 27,100 -49 Level Minneapolis Center
Sun 08:25:17 PM 43.2239 -97.0058 56° Northeast 327 376 27,000  Descending Minneapolis Center
Sun 08:26:18 PM 43.2714 -96.9022 58° Northeast 323 372 27,100 49 Climbing Minneapolis Center
Sun 08:27:20 PM 43.3183 -96.7972 58° Northeast 325 374 27,100  Level Minneapolis Center
Sun 08:28:21 PM 43.3700 -96.6947 55° Northeast 328 377 27,100  Level Minneapolis Center
Sun 08:29:22 PM 43.4156 -96.5897 59° Northeast 323 372 27,100 -49 Level Minneapolis Center
Sun 08:30:24 PM 43.4639 -96.4867 57° Northeast 322 371 27,000  Descending Minneapolis Center
Sun 08:31:25 PM 43.5203 -96.3606 58° Northeast 323 372 27,100 49 Climbing Minneapolis Center
Sun 08:32:26 PM 43.5725 -96.2608 54° Northeast 324 373 27,100  Level Minneapolis Center
Sun 08:33:28 PM 43.6433 -96.1956 34° Northeast 311 358 27,100  Level Minneapolis Center
Sun 08:34:29 PM 43.7206 -96.1489 24° Northeast 306 352 27,100  Level Minneapolis Center
Sun 08:35:31 PM 43.7942 -96.0914 29° Northeast 306 352 27,100 -49 Level Minneapolis Center
Sun 08:36:32 PM 43.8669 -96.0269 33° Northeast 312 359 27,000 -195 Descending Minneapolis Center
Sun 08:37:34 PM 43.9397 -95.9661 31° Northeast 310 357 26,700 -829 Descending Minneapolis Center
Sun 08:38:35 PM 44.0275 -95.8931 31° Northeast 310 357 25,300 -1,122 Descending Minneapolis Center
Sun 08:39:37 PM 44.1003 -95.8294 32° Northeast 312 359 24,400 -927 Descending Minneapolis Center
Sun 08:40:38 PM 44.1583 -95.7381 48° Northeast 325 374 23,400 -1,024 Descending Minneapolis Center
Sun 08:41:40 PM 44.1989 -95.6222 64° Northeast 334 384 22,300 -976 Descending Minneapolis Center
Sun 08:42:41 PM 44.2369 -95.5103 65° Northeast 325 374 21,400 -1,220 Descending Minneapolis Center
Sun 08:43:43 PM 44.2850 -95.4019 58° Northeast 328 377 19,800 -1,415 Descending Minneapolis Center
Sun 08:44:44 PM 44.3397 -95.2942 55° Northeast 337 388 18,500 -1,366 Descending Minneapolis Center
Sun 08:45:46 PM 44.4019 -95.1658 56° Northeast 336 387 17,000 -1,366 Descending Minneapolis Center
Sun 08:46:47 PM 44.4475 -95.0550 60° Northeast 333 383 15,700 -1,220 Descending Minneapolis Center
Sun 08:47:49 PM 44.4953 -94.9506 57° Northeast 324 373 14,500 -1,161 Descending Minneapolis Center
Sun 08:48:51 PM 44.5425 -94.8517 56° Northeast 311 358 13,300 -1,317 Descending Minneapolis Center
Sun 08:49:52 PM 44.5825 -94.7503 61° Northeast 302 348 11,800 -1,415 Descending Minneapolis Center
Sun 08:50:54 PM 44.6261 -94.6536 58° Northeast 296 341 10,400 -1,415 Descending Minneapolis Center
Sun 08:51:55 PM 44.6781 -94.5450 56° Northeast 290 334 8,900 -1,200 Descending Minneapolis Center
Sun 08:52:44 PM 44.7144 -94.4747 54° Northeast 276 318 8,200 -771 Descending FAA TRACON SMA TRACON (SMA)
Sun 08:53:05 PM 44.7281 -94.4461 56° Northeast 282 325 8,000 -600 Descending FAA TRACON SMA TRACON (SMA)
Sun 08:53:24 PM 44.7436 -94.4100 59° Northeast 283 326 7,800 -615 Descending FAA TRACON SMA TRACON (SMA)
Sun 08:53:44 PM 44.7564 -94.3806 59° Northeast 286 329 7,600 -450 Descending FAA TRACON SMA TRACON (SMA)
Sun 08:54:04 PM 44.7686 -94.3508 60° Northeast 286 329 7,500 -293 Descending FAA TRACON SMA TRACON (SMA)
Sun 08:54:25 PM 44.7833 -94.3144 60° Northeast 284 327 7,400 -146 Descending FAA TRACON SMA TRACON (SMA)
Sun 08:54:45 PM 44.7967 -94.2867 56° Northeast 279 321 7,400 -300 Level FAA TRACON SMA TRACON (SMA)
Sun 08:55:05 PM 44.8083 -94.2589 59° Northeast 271 312 7,200 -600 Descending FAA TRACON SMA TRACON (SMA)
Sun 08:55:25 PM 44.8242 -94.2244 57° Northeast 270 311 7,000 -300 Descending FAA TRACON SMA TRACON (SMA)
Sun 08:55:45 PM 44.8356 -94.1972 59° Northeast 269 310 7,000  Level FAA TRACON SMA TRACON (SMA)
Sun 08:56:05 PM 44.8508 -94.1639 57° Northeast 262 302 7,000  Level FAA TRACON SMA TRACON (SMA)
Sun 08:56:25 PM 44.8619 -94.1381 59° Northeast 258 297 7,000  Level FAA TRACON SMA TRACON (SMA)
Sun 08:56:45 PM 44.8731 -94.1128 58° Northeast 251 289 7,000  Level FAA TRACON SMA TRACON (SMA)
Sun 08:57:04 PM 44.8831 -94.0872 61° Northeast 246 283 7,000  Level FAA TRACON SMA TRACON (SMA)
Sun 08:57:24 PM 44.8958 -94.0553 61° Northeast 243 280 7,000  Level FAA TRACON SMA TRACON (SMA)
Sun 08:57:44 PM 44.9061 -94.0300 60° Northeast 243 280 7,000 -146 Level FAA TRACON SMA TRACON (SMA)
Sun 08:58:05 PM 44.9158 -94.0047 61° Northeast 241 277 6,900 -732 Descending FAA TRACON SMA TRACON (SMA)
Sun 08:58:25 PM 44.9275 -93.9706 64° Northeast 246 283 6,500 -1,200 Descending FAA TRACON SMA TRACON (SMA)
Sun 08:58:45 PM 44.9369 -93.9419 65° Northeast 257 296 6,100 -900 Descending FAA TRACON SMA TRACON (SMA)
Sun 08:59:05 PM 44.9458 -93.9131 66° East 263 303 5,900 -900 Descending FAA TRACON SMA TRACON (SMA)
Sun 08:59:25 PM 44.9578 -93.8767 65° Northeast 264 304 5,500 -900 Descending FAA TRACON SMA TRACON (SMA)
Sun 08:59:45 PM 44.9667 -93.8486 66° East 259 298 5,300 -600 Descending FAA TRACON SMA TRACON (SMA)
Sun 09:00:05 PM 44.9764 -93.8208 64° Northeast 257 296 5,100 -600 Descending FAA TRACON SMA TRACON (SMA)
Sun 09:00:25 PM 44.9883 -93.7878 63° Northeast 250 288 4,900 -837 Descending FAA TRACON SMA TRACON (SMA)
Sun 09:00:48 PM 44.9981 -93.7614 62° Northeast 248 285 4,500 -1,116 Descending FAA TRACON SMA TRACON (SMA)
Sun 09:01:08 PM 45.0106 -93.7278 62° Northeast 252 290 4,100 -1,297 Descending FAA TRACON SMA TRACON (SMA)
Sun 09:01:25 PM 45.0214 -93.7003 61° Northeast 256 295 3,700 -1,167 Descending FAA TRACON SMA TRACON (SMA)
Sun 09:01:44 PM 45.0311 -93.6733 63° Northeast 254 292 3,400 -1,050 Descending FAA TRACON SMA TRACON (SMA)
Sun 09:02:05 PM 45.0408 -93.6467 63° Northeast 250 288 3,000 -585 Descending FAA TRACON SMA TRACON (SMA)
Sun 09:02:25 PM 45.0528 -93.6133 63° Northeast 247 284 3,000  Level FAA TRACON SMA TRACON (SMA)
Sun 09:02:45 PM 45.0622 -93.5881 62° Northeast 242 278 3,000  Level FAA TRACON SMA TRACON (SMA)
Sun 09:03:05 PM 45.0711 -93.5633 63° Northeast 236 272 3,000  Level FAA TRACON SMA TRACON (SMA)
Sun 09:03:25 PM 45.0831 -93.5328 61° Northeast 229 264 3,000  Level FAA TRACON SMA TRACON (SMA)
Sun 09:03:45 PM 45.0922 -93.5089 61° Northeast 227 261 3,000  Level FAA TRACON SMA TRACON (SMA)
Sun 09:04:05 PM 45.1017 -93.4853 60° Northeast 227 261 3,000  Level FAA TRACON SMA TRACON (SMA)
Sun 09:04:25 PM 45.1128 -93.4556 62° Northeast 223 257 3,000  Level FAA TRACON SMA TRACON (SMA)
Sun 09:04:44 PM 45.1217 -93.4314 62° Northeast 225 259 3,000  Level FAA TRACON SMA TRACON (SMA)
Sun 09:05:04 PM 45.1306 -93.4083 61° Northeast 221 254 3,000  Level FAA TRACON SMA TRACON (SMA)
Sun 09:05:24 PM 45.1369 -93.3842 69° East 218 251 3,000  Level FAA TRACON SMA TRACON (SMA)
Sun 09:05:44 PM 45.1386 -93.3506 86° East 220 253 3,000  Level FAA TRACON SMA TRACON (SMA)
Sun 09:06:04 PM 45.1344 -93.3269 104° East 212 244 3,000  Level FAA TRACON SMA TRACON (SMA)
Sun 09:06:25 PM 45.1286 -93.3033 109° East 208 239 3,000  Level FAA TRACON SMA TRACON (SMA)
Sun 09:06:44 PM 45.1183 -93.2764 118° Southeast 203 234 3,000  Level FAA TRACON SMA TRACON (SMA)
Sun 09:07:05 PM 45.1092 -93.2561 123° Southeast 199 229 3,000  Level FAA TRACON SMA TRACON (SMA)
Sun 09:07:25 PM 45.1006 -93.2367 122° Southeast 194 223 3,000  Level FAA TRACON SMA TRACON (SMA)
Sun 09:07:45 PM 45.0892 -93.2114 123° Southeast 197 227 3,000  Level FAA TRACON SMA TRACON (SMA)
Sun 09:08:05 PM 45.0778 -93.1944 134° Southeast 197 227 3,000  Level FAA TRACON SMA TRACON (SMA)
Sun 09:08:25 PM 45.0642 -93.1831 149° Southeast 188 216 3,000  Level FAA TRACON SMA TRACON (SMA)
Sun 09:08:45 PM 45.0489 -93.1708 151° Southeast 169 194 3,000  Level FAA TRACON SMA TRACON (SMA)
Sun 09:09:05 PM 45.0369 -93.1597 147° Southeast 163 188 3,000 -150 Level FAA TRACON SMA TRACON (SMA)
Sun 09:09:25 PM 45.0272 -93.1494 143° Southeast 150 173 2,900 -300 Descending FAA TRACON SMA TRACON (SMA)
Sun 09:09:45 PM 45.0158 -93.1392 147° Southeast 130 150 2,800 -450 Descending FAA TRACON SMA TRACON (SMA)
Sun 09:10:05 PM 45.0056 -93.1300 148° Southeast 134 154 2,600 -900 Descending FAA TRACON SMA TRACON (SMA)
Sun 09:10:25 PM 44.9956 -93.1208 147° Southeast 138 159 2,200 -1,050 Descending FAA TRACON SMA TRACON (SMA)
Sun 09:10:45 PM 44.9828 -93.1094 148° Southeast 143 165 1,900 -814 Descending FAA TRACON SMA TRACON (SMA)
Sun 09:11:24 PM 44.9631 -93.0897 145° Southeast 142 163 1,400 -712 Descending FAA TRACON SMA TRACON (SMA)
Sun 09:11:44 PM 44.9561 -93.0828 145° Southeast 139 160 1,200 -600 Descending FAA TRACON SMA TRACON (SMA)
Sun 09:13:00 PM 44.9333 -93.0500 133° Southeast  Level FlightAware Approximate
Sun 09:20:00 PM 44.9346 -93.0603 133° Southeast  Level Estimated

Login

Don't have an account? Register now (free) for customized features, flight alerts, and more!